Private Wetterstation Sandau
Wetterdaten: Dienstag, 06.11.2012
Datum Zeit Temp. A. Feuchte A. Luftdruck Regen Wind Richtung Richtung Taupunkt Windchill
06.11.2012 00:01 6,1 C 85 % 1005,4 hPa 0,0 l/m 12,6 km/h (3 Bft) W-NW 292 3,8 C 3,5 C
06.11.2012 00:06 6,0 C 85 % 1005,6 hPa 0,0 l/m 9,7 km/h (2 Bft) W 270 3,7 C 3,9 C
06.11.2012 00:11 5,9 C 85 % 1005,8 hPa 0,0 l/m 11,2 km/h (2 Bft) W-NW 292 3,6 C 3,5 C
06.11.2012 00:16 5,9 C 85 % 1005,8 hPa 0,0 l/m 11,2 km/h (2 Bft) NW 315 3,6 C 3,5 C
06.11.2012 00:21 5,8 C 85 % 1005,9 hPa 0,0 l/m 11,9 km/h (2 Bft) NW 315 3,5 C 3,2 C
06.11.2012 00:26 5,8 C 85 % 1006,0 hPa 0,0 l/m 9,4 km/h (2 Bft) W 270 3,5 C 3,7 C
06.11.2012 00:31 5,6 C 85 % 1005,9 hPa 0,0 l/m 9,7 km/h (2 Bft) W-NW 292 3,3 C 3,4 C
06.11.2012 00:36 5,6 C 85 % 1005,9 hPa 0,0 l/m 10,1 km/h (2 Bft) W 270 3,3 C 3,4 C
06.11.2012 00:41 5,6 C 85 % 1006,0 hPa 0,0 l/m 9,7 km/h (2 Bft) NW 315 3,3 C 3,4 C
06.11.2012 00:46 5,6 C 85 % 1006,1 hPa 0,0 l/m 11,9 km/h (2 Bft) W 270 3,3 C 3,0 C
06.11.2012 00:51 5,6 C 86 % 1006,2 hPa 0,0 l/m 8,3 km/h (2 Bft) NW 315 3,4 C 3,8 C
06.11.2012 00:56 5,6 C 86 % 1006,2 hPa 0,0 l/m 13,3 km/h (3 Bft) W 270 3,4 C 2,8 C
06.11.2012 01:01 5,6 C 86 % 1006,3 hPa 0,0 l/m 5,0 km/h (1 Bft) W 270 3,4 C 4,8 C
06.11.2012 01:06 5,6 C 86 % 1006,4 hPa 0,0 l/m 14,8 km/h (3 Bft) W-NW 292 3,4 C 2,5 C
06.11.2012 01:11 5,6 C 86 % 1006,5 hPa 0,0 l/m 11,2 km/h (2 Bft) W 270 3,4 C 3,1 C
06.11.2012 01:16 5,6 C 86 % 1006,3 hPa 0,0 l/m 5,4 km/h (1 Bft) W-NW 292 3,4 C 4,6 C
06.11.2012 01:21 5,5 C 86 % 1006,4 hPa 0,0 l/m 6,8 km/h (2 Bft) W-NW 292 3,3 C 4,1 C
06.11.2012 01:26 5,5 C 86 % 1006,5 hPa 0,0 l/m 5,8 km/h (2 Bft) W 270 3,3 C 4,4 C
06.11.2012 01:31 5,5 C 86 % 1006,6 hPa 0,0 l/m 7,2 km/h (2 Bft) W-NW 292 3,3 C 3,9 C
06.11.2012 01:36 5,4 C 86 % 1006,7 hPa 0,0 l/m 10,1 km/h (2 Bft) W-NW 292 3,3 C 3,1 C
06.11.2012 01:41 5,4 C 86 % 1006,7 hPa 0,0 l/m 5,4 km/h (1 Bft) W 270 3,3 C 4,4 C
06.11.2012 01:46 5,3 C 86 % 1006,9 hPa 0,0 l/m 9,7 km/h (2 Bft) W-NW 292 3,2 C 3,1 C
06.11.2012 01:51 5,2 C 86 % 1007,0 hPa 0,0 l/m 15,5 km/h (3 Bft) W 270 3,1 C 1,9 C
06.11.2012 01:56 5,1 C 86 % 1007,1 hPa 0,0 l/m 5,0 km/h (1 Bft) W 270 3,0 C 4,2 C
06.11.2012 02:01 5,0 C 86 % 1007,1 hPa 0,0 l/m 10,1 km/h (2 Bft) W-SW 247 2,9 C 2,6 C
06.11.2012 02:06 4,8 C 87 % 1007,1 hPa 0,0 l/m 5,4 km/h (1 Bft) W 270 2,8 C 3,7 C
06.11.2012 02:11 4,7 C 87 % 1007,2 hPa 0,0 l/m 4,3 km/h (1 Bft) W-SW 247 2,7 C 4,7 C
06.11.2012 02:16 4,6 C 87 % 1007,2 hPa 0,0 l/m 4,0 km/h (1 Bft) W 270 2,6 C 4,6 C
06.11.2012 02:21 4,4 C 87 % 1007,2 hPa 0,0 l/m 10,1 km/h (2 Bft) S-SW 202 2,4 C 1,9 C
06.11.2012 02:26 4,3 C 88 % 1007,3 hPa 0,0 l/m 6,5 km/h (2 Bft) NW 315 2,5 C 2,8 C
06.11.2012 02:31 4,3 C 88 % 1007,3 hPa 0,0 l/m 13,7 km/h (3 Bft) W 270 2,5 C 1,1 C
06.11.2012 02:36 4,1 C 88 % 1007,2 hPa 0,0 l/m 2,9 km/h (1 Bft) W-NW 292 2,3 C 4,1 C
06.11.2012 02:41 4,1 C 88 % 1007,3 hPa 0,0 l/m 5,0 km/h (1 Bft) W 270 2,3 C 3,1 C
06.11.2012 02:46 4,1 C 88 % 1007,4 hPa 0,0 l/m 0,0 km/h (0 Bft) W 270 2,3 C 4,1 C
06.11.2012 02:51 3,9 C 88 % 1007,5 hPa 0,0 l/m 3,2 km/h (1 Bft) SW 225 2,1 C 3,9 C
06.11.2012 02:56 3,9 C 88 % 1007,6 hPa 0,0 l/m 8,3 km/h (2 Bft) W 270 2,1 C 1,8 C
06.11.2012 03:01 3,8 C 89 % 1007,3 hPa 0,0 l/m 6,8 km/h (2 Bft) W 270 2,2 C 2,1 C
06.11.2012 03:06 3,8 C 89 % 1007,4 hPa 0,0 l/m 7,9 km/h (2 Bft) W-SW 247 2,2 C 1,8 C
06.11.2012 03:11 3,8 C 89 % 1007,5 hPa 0,0 l/m 7,2 km/h (2 Bft) W-NW 292 2,2 C 2,0 C
06.11.2012 03:16 3,6 C 89 % 1007,5 hPa 0,0 l/m 3,2 km/h (1 Bft) W-SW 247 2,0 C 3,6 C
06.11.2012 03:21 3,6 C 89 % 1007,7 hPa 0,0 l/m 20,9 km/h (4 Bft) W 270 2,0 C -0,8 C
06.11.2012 03:26 3,6 C 89 % 1007,7 hPa 0,0 l/m 6,5 km/h (2 Bft) W-SW 247 2,0 C 1,9 C
06.11.2012 03:31 3,5 C 89 % 1007,7 hPa 0,0 l/m 8,3 km/h (2 Bft) W-SW 247 1,9 C 1,3 C
06.11.2012 03:36 3,4 C 89 % 1007,7 hPa 0,0 l/m 12,2 km/h (2 Bft) W-SW 247 1,8 C 0,3 C
06.11.2012 03:41 3,4 C 89 % 1007,7 hPa 0,0 l/m 6,8 km/h (2 Bft) W 270 1,8 C 1,6 C
06.11.2012 03:46 3,4 C 90 % 1007,7 hPa 0,0 l/m 6,5 km/h (2 Bft) W 270 1,9 C 1,7 C
06.11.2012 03:51 3,3 C 90 % 1007,9 hPa 0,0 l/m 9,0 km/h (2 Bft) W 270 1,8 C 0,9 C
06.11.2012 03:56 3,3 C 90 % 1008,0 hPa 0,0 l/m 14,4 km/h (3 Bft) W 270 1,8 C -0,2 C
06.11.2012 04:01 3,3 C 90 % 1008,0 hPa 0,0 l/m 0,0 km/h (0 Bft) W 270 1,8 C 3,3 C
06.11.2012 04:06 3,3 C 90 % 1008,1 hPa 0,0 l/m 11,2 km/h (2 Bft) W-SW 247 1,8 C 0,4 C
06.11.2012 04:11 3,3 C 90 % 1008,0 hPa 0,0 l/m 12,6 km/h (3 Bft) W-SW 247 1,8 C 0,1 C
06.11.2012 04:16 3,3 C 90 % 1008,2 hPa 0,0 l/m 5,4 km/h (1 Bft) W 270 1,8 C 2,0 C
06.11.2012 04:21 3,3 C 90 % 1008,1 hPa 0,0 l/m 6,1 km/h (2 Bft) W 270 1,8 C 1,7 C
06.11.2012 04:26 3,3 C 90 % 1008,1 hPa 0,0 l/m 8,6 km/h (2 Bft) W 270 1,8 C 1,0 C
06.11.2012 04:31 3,2 C 90 % 1008,2 hPa 0,0 l/m 6,5 km/h (2 Bft) W 270 1,7 C 1,5 C
06.11.2012 04:36 3,2 C 91 % 1008,2 hPa 0,0 l/m 10,8 km/h (2 Bft) W 270 1,9 C 0,3 C
06.11.2012 04:41 3,2 C 91 % 1008,3 hPa 0,0 l/m 6,1 km/h (2 Bft) SW 225 1,9 C 1,6 C
06.11.2012 04:46 3,2 C 91 % 1008,3 hPa 0,0 l/m 14,8 km/h (3 Bft) W 270 1,9 C -0,4 C
06.11.2012 04:51 3,2 C 91 % 1008,3 hPa 0,0 l/m 5,8 km/h (2 Bft) W-SW 247 1,9 C 1,7 C
06.11.2012 04:56 3,3 C 91 % 1008,5 hPa 0,0 l/m 9,4 km/h (2 Bft) SW 225 2,0 C 0,8 C
06.11.2012 05:01 3,4 C 91 % 1008,4 hPa 0,0 l/m 9,7 km/h (2 Bft) W-SW 247 2,1 C 0,8 C
06.11.2012 05:06 3,5 C 91 % 1008,5 hPa 0,0 l/m 8,3 km/h (2 Bft) W 270 2,2 C 1,3 C
06.11.2012 05:11 3,6 C 91 % 1008,6 hPa 0,0 l/m 9,4 km/h (2 Bft) W 270 2,3 C 1,1 C
06.11.2012 05:16 3,8 C 91 % 1008,7 hPa 0,0 l/m 2,5 km/h (1 Bft) W 270 2,5 C 3,8 C
06.11.2012 05:21 3,8 C 92 % 1008,8 hPa 0,0 l/m 8,6 km/h (2 Bft) W-NW 292 2,6 C 1,6 C
06.11.2012 05:26 3,9 C 92 % 1008,8 hPa 0,0 l/m 4,3 km/h (1 Bft) W-NW 292 2,7 C 3,9 C
06.11.2012 05:31 3,9 C 92 % 1008,8 hPa 0,0 l/m 8,3 km/h (2 Bft) W-SW 247 2,7 C 1,8 C
06.11.2012 05:36 3,9 C 92 % 1008,7 hPa 0,0 l/m 11,5 km/h (2 Bft) W 270 2,7 C 1,0 C
06.11.2012 05:41 4,1 C 92 % 1008,8 hPa 0,0 l/m 11,9 km/h (2 Bft) W 270 2,9 C 1,2 C
06.11.2012 05:46 4,1 C 92 % 1009,0 hPa 0,0 l/m 11,5 km/h (2 Bft) W 270 2,9 C 1,3 C
06.11.2012 05:51 4,1 C 91 % 1009,0 hPa 0,0 l/m 9,7 km/h (2 Bft) W-SW 247 2,8 C 1,7 C
06.11.2012 05:56 4,1 C 91 % 1008,9 hPa 0,0 l/m 8,3 km/h (2 Bft) W 270 2,8 C 2,0 C
06.11.2012 06:01 4,1 C 91 % 1009,1 hPa 0,0 l/m 4,0 km/h (1 Bft) NW 315 2,8 C 4,1 C
06.11.2012 06:06 4,1 C 91 % 1009,1 hPa 0,0 l/m 5,0 km/h (1 Bft) W 270 2,8 C 3,1 C
06.11.2012 06:11 4,1 C 91 % 1009,2 hPa 0,0 l/m 7,9 km/h (2 Bft) W 270 2,8 C 2,1 C
06.11.2012 06:16 4,1 C 91 % 1009,3 hPa 0,0 l/m 3,2 km/h (1 Bft) W-NW 292 2,8 C 4,1 C
06.11.2012 06:21 4,1 C 91 % 1009,2 hPa 0,0 l/m 9,4 km/h (2 Bft) W-NW 292 2,8 C 1,7 C
06.11.2012 06:26 4,1 C 91 % 1009,2 hPa 0,0 l/m 4,7 km/h (1 Bft) W-SW 247 2,8 C 3,2 C
06.11.2012 06:31 4,1 C 91 % 1009,5 hPa 0,0 l/m 7,6 km/h (2 Bft) W 270 2,8 C 2,2 C
06.11.2012 06:36 4,1 C 91 % 1009,6 hPa 0,0 l/m 12,2 km/h (2 Bft) NW 315 2,8 C 1,1 C
06.11.2012 06:41 4,1 C 90 % 1009,5 hPa 0,0 l/m 9,0 km/h (2 Bft) W 270 2,6 C 1,8 C
06.11.2012 06:46 4,1 C 90 % 1009,7 hPa 0,0 l/m 4,3 km/h (1 Bft) W 270 2,6 C 4,1 C
06.11.2012 06:51 4,0 C 90 % 1009,8 hPa 0,0 l/m 4,3 km/h (1 Bft) W-SW 247 2,5 C 4,0 C
06.11.2012 06:56 3,9 C 90 % 1009,9 hPa 0,0 l/m 2,9 km/h (1 Bft) W 270 2,4 C 3,9 C
06.11.2012 07:01 3,9 C 90 % 1009,9 hPa 0,0 l/m 4,7 km/h (1 Bft) W 270 2,4 C 3,0 C
06.11.2012 07:06 3,9 C 90 % 1010,2 hPa 0,0 l/m 2,5 km/h (1 Bft) W-NW 292 2,4 C 3,9 C
06.11.2012 07:11 3,9 C 90 % 1010,0 hPa 0,0 l/m 9,7 km/h (2 Bft) W-NW 292 2,4 C 1,4 C
06.11.2012 07:16 3,9 C 90 % 1010,3 hPa 0,0 l/m 3,2 km/h (1 Bft) W 270 2,4 C 3,9 C
06.11.2012 07:21 3,9 C 90 % 1010,4 hPa 0,0 l/m 2,5 km/h (1 Bft) W-NW 292 2,4 C 3,9 C
06.11.2012 07:26 3,9 C 90 % 1010,5 hPa 0,0 l/m 11,2 km/h (2 Bft) W 270 2,4 C 1,1 C
06.11.2012 07:31 3,9 C 90 % 1010,4 hPa 0,0 l/m 2,2 km/h (1 Bft) W 270 2,4 C 3,9 C
06.11.2012 07:36 3,9 C 90 % 1010,6 hPa 0,0 l/m 9,0 km/h (2 Bft) W-NW 292 2,4 C 1,6 C
06.11.2012 07:41 3,9 C 90 % 1010,8 hPa 0,0 l/m 7,2 km/h (2 Bft) W 270 2,4 C 2,1 C
06.11.2012 07:46 3,9 C 90 % 1010,7 hPa 0,0 l/m 13,0 km/h (3 Bft) W-NW 292 2,4 C 0,7 C
06.11.2012 07:51 3,9 C 90 % 1010,9 hPa 0,0 l/m 5,4 km/h (1 Bft) SW 225 2,4 C 2,7 C
06.11.2012 07:56 3,9 C 90 % 1010,7 hPa 0,0 l/m 8,6 km/h (2 Bft) NW 315 2,4 C 1,7 C
06.11.2012 08:01 3,9 C 90 % 1010,8 hPa 0,0 l/m 3,6 km/h (1 Bft) W 270 2,4 C 3,9 C
06.11.2012 08:06 3,9 C 90 % 1010,9 hPa 0,0 l/m 10,4 km/h (2 Bft) NW 315 2,4 C 1,3 C
06.11.2012 08:11 3,9 C 90 % 1010,9 hPa 0,0 l/m 14,8 km/h (3 Bft) NW 315 2,4 C 0,4 C
06.11.2012 08:16 4,0 C 90 % 1011,0 hPa 0,0 l/m 19,1 km/h (3 Bft) W 270 2,5 C -0,1 C
06.11.2012 08:21 4,0 C 90 % 1011,1 hPa 0,0 l/m 7,6 km/h (2 Bft) NW 315 2,5 C 2,1 C
06.11.2012 08:26 4,1 C 90 % 1011,0 hPa 0,0 l/m 12,2 km/h (2 Bft) W 270 2,6 C 1,1 C
06.11.2012 08:31 4,1 C 90 % 1011,2 hPa 0,0 l/m 12,2 km/h (2 Bft) NW 315 2,6 C 1,1 C
06.11.2012 08:36 4,1 C 90 % 1011,3 hPa 0,0 l/m 14,8 km/h (3 Bft) NW 315 2,6 C 0,7 C
06.11.2012 08:41 4,1 C 90 % 1011,3 hPa 0,0 l/m 7,2 km/h (2 Bft) W-NW 292 2,6 C 2,3 C
06.11.2012 08:46 4,1 C 89 % 1011,4 hPa 0,0 l/m 8,6 km/h (2 Bft) NW 315 2,5 C 1,9 C
06.11.2012 08:51 4,1 C 89 % 1011,6 hPa 0,0 l/m 16,9 km/h (3 Bft) NW 315 2,5 C 0,3 C
06.11.2012 08:56 4,1 C 89 % 1011,5 hPa 0,0 l/m 9,0 km/h (2 Bft) W-NW 292 2,5 C 1,8 C
06.11.2012 09:01 4,2 C 89 % 1011,5 hPa 0,0 l/m 9,4 km/h (2 Bft) W 270 2,6 C 1,8 C
06.11.2012 09:06 4,2 C 89 % 1011,6 hPa 0,0 l/m 16,9 km/h (3 Bft) NW 315 2,6 C 0,5 C
06.11.2012 09:11 4,3 C 89 % 1011,7 hPa 0,0 l/m 2,9 km/h (1 Bft) W 270 2,7 C 4,3 C
06.11.2012 09:16 4,3 C 89 % 1011,7 hPa 0,0 l/m 14,8 km/h (3 Bft) W-NW 292 2,7 C 0,9 C
06.11.2012 09:21 4,4 C 89 % 1011,9 hPa 0,0 l/m 16,9 km/h (3 Bft) NW 315 2,7 C 0,7 C
06.11.2012 09:26 4,4 C 89 % 1012,0 hPa 0,0 l/m 12,2 km/h (2 Bft) W-NW 292 2,7 C 1,5 C
06.11.2012 09:31 4,3 C 88 % 1012,1 hPa 0,0 l/m 5,0 km/h (1 Bft) W-NW 292 2,5 C 3,3 C
06.11.2012 09:36 4,4 C 88 % 1011,9 hPa 0,0 l/m 6,1 km/h (2 Bft) W-NW 292 2,6 C 3,0 C
06.11.2012 09:41 4,4 C 88 % 1012,0 hPa 0,0 l/m 6,5 km/h (2 Bft) W 270 2,6 C 2,9 C
06.11.2012 09:46 4,5 C 88 % 1012,1 hPa 0,0 l/m 4,0 km/h (1 Bft) W-NW 292 2,7 C 4,5 C
06.11.2012 09:51 4,6 C 88 % 1012,2 hPa 0,0 l/m 7,6 km/h (2 Bft) W 270 2,8 C 2,8 C
06.11.2012 09:56 4,6 C 88 % 1012,3 hPa 0,0 l/m 9,7 km/h (2 Bft) W 270 2,8 C 2,2 C
06.11.2012 10:01 4,6 C 88 % 1012,1 hPa 0,0 l/m 8,3 km/h (2 Bft) W-SW 247 2,8 C 2,6 C
06.11.2012 10:06 4,7 C 88 % 1012,3 hPa 0,0 l/m 8,6 km/h (2 Bft) W-SW 247 2,9 C 2,6 C
06.11.2012 10:11 4,8 C 88 % 1012,4 hPa 0,0 l/m 13,7 km/h (3 Bft) W 270 3,0 C 1,7 C
06.11.2012 10:16 4,9 C 88 % 1012,5 hPa 0,0 l/m 7,6 km/h (2 Bft) W 270 3,1 C 3,1 C
06.11.2012 10:21 5,0 C 88 % 1012,6 hPa 0,0 l/m 2,9 km/h (1 Bft) W 270 3,2 C 5,0 C
06.11.2012 10:26 5,1 C 87 % 1012,5 hPa 0,0 l/m 0,0 km/h (0 Bft) W 270 3,1 C 5,1 C
06.11.2012 10:31 5,2 C 87 % 1012,6 hPa 0,0 l/m 6,5 km/h (2 Bft) W 270 3,2 C 3,8 C
06.11.2012 10:36 5,3 C 87 % 1012,7 hPa 0,0 l/m 6,1 km/h (2 Bft) W-NW 292 3,3 C 4,0 C
06.11.2012 10:41 5,3 C 86 % 1012,7 hPa 0,0 l/m 6,8 km/h (2 Bft) W-NW 292 3,2 C 3,8 C
06.11.2012 10:46 5,5 C 86 % 1012,8 hPa 0,0 l/m 2,5 km/h (1 Bft) W-NW 292 3,3 C 5,5 C
06.11.2012 10:51 5,6 C 86 % 1012,8 hPa 0,0 l/m 12,6 km/h (3 Bft) W-NW 292 3,4 C 2,9 C
06.11.2012 10:56 5,8 C 85 % 1012,8 hPa 0,0 l/m 16,6 km/h (3 Bft) NW 315 3,5 C 2,5 C
06.11.2012 11:01 5,8 C 84 % 1012,9 hPa 0,0 l/m 6,1 km/h (2 Bft) NW 315 3,3 C 4,6 C
06.11.2012 11:06 5,9 C 84 % 1013,0 hPa 0,0 l/m 13,0 km/h (3 Bft) W-NW 292 3,4 C 3,2 C
06.11.2012 11:11 5,9 C 84 % 1013,2 hPa 0,0 l/m 6,8 km/h (2 Bft) W-NW 292 3,4 C 4,5 C
06.11.2012 11:16 6,1 C 83 % 1013,2 hPa 0,0 l/m 9,0 km/h (2 Bft) NW 315 3,4 C 4,2 C
06.11.2012 11:21 6,1 C 83 % 1013,2 hPa 0,0 l/m 3,2 km/h (1 Bft) S-SW 202 3,4 C 6,1 C
06.11.2012 11:26 6,3 C 83 % 1013,2 hPa 0,0 l/m 6,8 km/h (2 Bft) W-NW 292 3,6 C 5,0 C
06.11.2012 11:31 6,4 C 82 % 1013,2 hPa 0,0 l/m 10,4 km/h (2 Bft) W 270 3,6 C 4,3 C
06.11.2012 11:36 6,4 C 81 % 1013,1 hPa 0,0 l/m 8,6 km/h (2 Bft) W-SW 247 3,4 C 4,6 C
06.11.2012 11:41 6,5 C 81 % 1013,1 hPa 0,0 l/m 16,9 km/h (3 Bft) NW 315 3,5 C 3,3 C
06.11.2012 11:46 6,6 C 80 % 1013,0 hPa 0,0 l/m 7,9 km/h (2 Bft) W 270 3,4 C 5,0 C
06.11.2012 11:51 6,7 C 80 % 1013,2 hPa 0,0 l/m 7,9 km/h (2 Bft) W-NW 292 3,5 C 5,2 C
06.11.2012 11:56 6,9 C 80 % 1013,2 hPa 0,0 l/m 5,0 km/h (1 Bft) W-NW 292 3,7 C 6,2 C
06.11.2012 12:01 6,9 C 80 % 1013,3 hPa 0,0 l/m 7,9 km/h (2 Bft) NW 315 3,7 C 5,4 C
06.11.2012 12:06 7,0 C 79 % 1013,3 hPa 0,0 l/m 7,9 km/h (2 Bft) W-SW 247 3,6 C 5,5 C
06.11.2012 12:11 7,2 C 79 % 1013,4 hPa 0,0 l/m 15,1 km/h (3 Bft) W 270 3,8 C 4,4 C
06.11.2012 12:16 7,2 C 78 % 1013,4 hPa 0,0 l/m 15,8 km/h (3 Bft) W 270 3,6 C 4,4 C
06.11.2012 12:21 7,1 C 78 % 1013,3 hPa 0,0 l/m 17,6 km/h (3 Bft) W-SW 247 3,5 C 4,0 C
06.11.2012 12:26 7,2 C 79 % 1013,3 hPa 0,0 l/m 13,7 km/h (3 Bft) W-SW 247 3,8 C 4,7 C
06.11.2012 12:31 7,2 C 79 % 1013,3 hPa 0,0 l/m 20,5 km/h (4 Bft) W-SW 247 3,8 C 3,8 C
06.11.2012 12:36 7,3 C 78 % 1013,3 hPa 0,0 l/m 14,8 km/h (3 Bft) W-SW 247 3,7 C 4,6 C
06.11.2012 12:41 7,4 C 78 % 1013,4 hPa 0,0 l/m 25,9 km/h (4 Bft) W 270 3,8 C 3,5 C
06.11.2012 12:46 7,5 C 77 % 1013,4 hPa 0,0 l/m 14,0 km/h (3 Bft) W 270 3,7 C 5,0 C
06.11.2012 12:51 7,6 C 77 % 1013,4 hPa 0,0 l/m 25,2 km/h (4 Bft) W 270 3,8 C 3,8 C
06.11.2012 12:56 7,6 C 77 % 1013,4 hPa 0,0 l/m 8,6 km/h (2 Bft) W-SW 247 3,8 C 6,1 C
06.11.2012 13:01 7,8 C 76 % 1013,4 hPa 0,0 l/m 20,2 km/h (4 Bft) W 270 3,8 C 4,6 C
06.11.2012 13:06 7,9 C 77 % 1013,3 hPa 0,0 l/m 22,3 km/h (4 Bft) W 270 4,1 C 4,5 C
06.11.2012 13:11 7,9 C 76 % 1013,4 hPa 0,0 l/m 9,7 km/h (2 Bft) W-SW 247 3,9 C 6,2 C
06.11.2012 13:16 8,0 C 76 % 1013,3 hPa 0,0 l/m 26,6 km/h (4 Bft) W 270 4,0 C 4,2 C
06.11.2012 13:21 7,9 C 75 % 1013,4 hPa 0,0 l/m 9,4 km/h (2 Bft) W-NW 292 3,7 C 6,2 C
06.11.2012 13:26 8,0 C 74 % 1013,4 hPa 0,0 l/m 16,9 km/h (3 Bft) S-SW 202 3,7 C 5,2 C
06.11.2012 13:31 8,1 C 74 % 1013,3 hPa 0,0 l/m 25,9 km/h (4 Bft) W 270 3,8 C 4,4 C
06.11.2012 13:36 8,1 C 74 % 1013,1 hPa 0,0 l/m 16,6 km/h (3 Bft) W 270 3,8 C 5,4 C
06.11.2012 13:41 8,1 C 73 % 1013,4 hPa 0,0 l/m 13,0 km/h (3 Bft) W 270 3,6 C 5,9 C
06.11.2012 13:46 7,9 C 73 % 1013,4 hPa 0,0 l/m 9,4 km/h (2 Bft) W-NW 292 3,4 C 6,2 C
06.11.2012 13:51 7,9 C 73 % 1013,3 hPa 0,0 l/m 19,1 km/h (3 Bft) W 270 3,4 C 4,8 C
06.11.2012 13:56 8,1 C 73 % 1013,4 hPa 0,0 l/m 5,0 km/h (1 Bft) NW 315 3,6 C 7,6 C
06.11.2012 14:01 8,1 C 73 % 1013,5 hPa 0,0 l/m 13,0 km/h (3 Bft) W-NW 292 3,6 C 5,9 C
06.11.2012 14:06 8,1 C 73 % 1013,5 hPa 0,0 l/m 10,1 km/h (2 Bft) W-SW 247 3,6 C 6,3 C
06.11.2012 14:11 8,2 C 72 % 1013,5 hPa 0,0 l/m 15,1 km/h (3 Bft) NW 315 3,5 C 5,7 C
06.11.2012 14:16 8,3 C 73 % 1013,4 hPa 0,0 l/m 20,2 km/h (4 Bft) W 270 3,8 C 5,2 C
06.11.2012 14:21 8,3 C 73 % 1013,4 hPa 0,0 l/m 14,4 km/h (3 Bft) W-SW 247 3,8 C 5,9 C
06.11.2012 14:26 8,3 C 73 % 1013,4 hPa 0,0 l/m 10,1 km/h (2 Bft) W 270 3,8 C 6,6 C
06.11.2012 14:31 8,3 C 73 % 1013,3 hPa 0,0 l/m 14,8 km/h (3 Bft) W-SW 247 3,8 C 5,8 C
06.11.2012 14:36 8,3 C 74 % 1013,4 hPa 0,0 l/m 10,8 km/h (2 Bft) W-NW 292 3,9 C 6,5 C
06.11.2012 14:41 8,3 C 74 % 1013,3 hPa 0,0 l/m 12,6 km/h (3 Bft) W-SW 247 3,9 C 6,2 C
06.11.2012 14:46 8,3 C 74 % 1013,3 hPa 0,0 l/m 18,0 km/h (3 Bft) W-SW 247 3,9 C 5,4 C
06.11.2012 14:51 8,2 C 74 % 1013,3 hPa 0,0 l/m 23,4 km/h (4 Bft) W 270 3,8 C 4,8 C
06.11.2012 14:56 8,2 C 74 % 1013,5 hPa 0,0 l/m 11,9 km/h (2 Bft) W 270 3,8 C 6,2 C
06.11.2012 15:01 8,1 C 74 % 1013,3 hPa 0,0 l/m 13,7 km/h (3 Bft) W-SW 247 3,8 C 5,8 C
06.11.2012 15:06 8,1 C 74 % 1013,5 hPa 0,0 l/m 30,6 km/h (5 Bft) W 270 3,8 C 4,1 C
06.11.2012 15:11 8,0 C 74 % 1013,5 hPa 0,0 l/m 17,3 km/h (3 Bft) W-SW 247 3,7 C 5,2 C
06.11.2012 15:16 7,9 C 74 % 1013,4 hPa 0,0 l/m 9,7 km/h (2 Bft) W-NW 292 3,6 C 6,2 C
06.11.2012 15:21 7,9 C 74 % 1013,4 hPa 0,0 l/m 22,3 km/h (4 Bft) W-SW 247 3,6 C 4,5 C
06.11.2012 15:26 7,9 C 75 % 1013,4 hPa 0,0 l/m 10,4 km/h (2 Bft) W-SW 247 3,7 C 6,0 C
06.11.2012 15:31 7,9 C 75 % 1013,4 hPa 0,0 l/m 10,4 km/h (2 Bft) W-SW 247 3,7 C 6,0 C
06.11.2012 15:36 7,9 C 75 % 1013,4 hPa 0,0 l/m 14,0 km/h (3 Bft) W-SW 247 3,7 C 5,5 C
06.11.2012 15:41 7,8 C 75 % 1013,4 hPa 0,0 l/m 12,2 km/h (2 Bft) S 180 3,7 C 5,6 C
06.11.2012 15:46 7,7 C 76 % 1013,3 hPa 0,0 l/m 19,1 km/h (3 Bft) W-SW 247 3,7 C 4,6 C
06.11.2012 15:51 7,6 C 76 % 1013,3 hPa 0,0 l/m 7,6 km/h (2 Bft) W-SW 247 3,6 C 6,3 C
06.11.2012 15:56 7,5 C 76 % 1013,3 hPa 0,0 l/m 16,9 km/h (3 Bft) W-SW 247 3,5 C 4,6 C
06.11.2012 16:01 7,4 C 76 % 1013,3 hPa 0,0 l/m 9,7 km/h (2 Bft) W-SW 247 3,5 C 5,6 C
06.11.2012 16:06 7,3 C 77 % 1013,4 hPa 0,0 l/m 6,1 km/h (2 Bft) W-SW 247 3,5 C 6,3 C
06.11.2012 16:11 7,2 C 77 % 1013,2 hPa 0,0 l/m 7,2 km/h (2 Bft) S-SW 202 3,4 C 5,9 C
06.11.2012 16:16 7,1 C 78 % 1013,4 hPa 0,0 l/m 11,9 km/h (2 Bft) S-SW 202 3,5 C 4,8 C
06.11.2012 16:21 6,9 C 78 % 1013,4 hPa 0,0 l/m 6,1 km/h (2 Bft) SW 225 3,3 C 5,9 C
06.11.2012 16:26 6,9 C 79 % 1013,5 hPa 0,0 l/m 11,2 km/h (2 Bft) W-SW 247 3,5 C 4,7 C
06.11.2012 16:31 6,8 C 79 % 1013,4 hPa 0,0 l/m 8,6 km/h (2 Bft) S-SW 202 3,4 C 5,1 C
06.11.2012 16:36 6,8 C 79 % 1013,4 hPa 0,0 l/m 3,2 km/h (1 Bft) SW 225 3,4 C 6,8 C
06.11.2012 16:41 6,8 C 79 % 1013,4 hPa 0,0 l/m 5,0 km/h (1 Bft) S-SW 202 3,4 C 6,1 C
06.11.2012 16:46 6,7 C 80 % 1013,4 hPa 0,0 l/m 13,3 km/h (3 Bft) S-SW 202 3,5 C 4,1 C
06.11.2012 16:51 6,7 C 80 % 1013,2 hPa 0,0 l/m 16,6 km/h (3 Bft) W-SW 247 3,5 C 3,6 C
06.11.2012 16:56 6,7 C 80 % 1013,4 hPa 0,0 l/m 12,6 km/h (3 Bft) SW 225 3,5 C 4,2 C
06.11.2012 17:01 6,7 C 80 % 1013,3 hPa 0,0 l/m 14,8 km/h (3 Bft) W-NW 292 3,5 C 3,9 C
06.11.2012 17:06 6,8 C 80 % 1013,4 hPa 0,0 l/m 14,4 km/h (3 Bft) W-SW 247 3,6 C 4,1 C
06.11.2012 17:11 6,8 C 80 % 1013,0 hPa 0,0 l/m 9,4 km/h (2 Bft) S-SW 202 3,6 C 4,9 C
06.11.2012 17:16 6,7 C 80 % 1013,2 hPa 0,0 l/m 7,2 km/h (2 Bft) S-SW 202 3,5 C 5,3 C
06.11.2012 17:21 6,7 C 80 % 1013,2 hPa 0,0 l/m 16,6 km/h (3 Bft) SW 225 3,5 C 3,6 C
06.11.2012 17:26 6,7 C 80 % 1013,2 hPa 0,0 l/m 13,7 km/h (3 Bft) SW 225 3,5 C 4,0 C
06.11.2012 17:31 6,7 C 80 % 1013,1 hPa 0,0 l/m 12,2 km/h (2 Bft) W-SW 247 3,5 C 4,3 C
06.11.2012 17:36 6,8 C 80 % 1013,1 hPa 0,0 l/m 7,2 km/h (2 Bft) W-SW 247 3,6 C 5,5 C
06.11.2012 17:41 6,8 C 80 % 1012,8 hPa 0,0 l/m 9,7 km/h (2 Bft) W-SW 247 3,6 C 4,9 C
06.11.2012 17:46 6,8 C 80 % 1013,0 hPa 0,0 l/m 9,4 km/h (2 Bft) W-SW 247 3,6 C 4,9 C
06.11.2012 17:51 6,8 C 80 % 1013,1 hPa 0,0 l/m 11,9 km/h (2 Bft) SW 225 3,6 C 4,5 C
06.11.2012 17:56 6,7 C 80 % 1012,9 hPa 0,0 l/m 12,6 km/h (3 Bft) W 270 3,5 C 4,2 C
06.11.2012 18:01 6,7 C 80 % 1013,0 hPa 0,0 l/m 12,6 km/h (3 Bft) SW 225 3,5 C 4,2 C
06.11.2012 18:06 6,6 C 80 % 1013,1 hPa 0,0 l/m 12,6 km/h (3 Bft) SW 225 3,4 C 4,1 C
06.11.2012 18:11 6,6 C 81 % 1013,1 hPa 0,0 l/m 13,3 km/h (3 Bft) W 270 3,6 C 4,0 C
06.11.2012 18:16 6,6 C 81 % 1012,9 hPa 0,0 l/m 13,0 km/h (3 Bft) SW 225 3,6 C 4,0 C
06.11.2012 18:21 6,6 C 81 % 1012,9 hPa 0,0 l/m 8,6 km/h (2 Bft) W-SW 247 3,6 C 4,9 C
06.11.2012 18:26 6,6 C 81 % 1012,8 hPa 0,0 l/m 13,0 km/h (3 Bft) S-SW 202 3,6 C 4,0 C
06.11.2012 18:31 6,7 C 81 % 1012,9 hPa 0,0 l/m 21,6 km/h (4 Bft) W 270 3,7 C 3,0 C
06.11.2012 18:36 6,8 C 81 % 1012,8 hPa 0,0 l/m 14,4 km/h (3 Bft) W 270 3,8 C 4,1 C
06.11.2012 18:41 6,8 C 81 % 1012,8 hPa 0,0 l/m 15,1 km/h (3 Bft) W-SW 247 3,8 C 4,0 C
06.11.2012 18:46 6,9 C 81 % 1012,8 hPa 0,0 l/m 11,5 km/h (2 Bft) W-SW 247 3,9 C 4,6 C
06.11.2012 18:51 6,9 C 80 % 1013,0 hPa 0,0 l/m 16,2 km/h (3 Bft) W-SW 247 3,7 C 3,9 C
06.11.2012 18:56 6,9 C 80 % 1012,9 hPa 0,0 l/m 18,0 km/h (3 Bft) W-SW 247 3,7 C 3,7 C
06.11.2012 19:01 6,9 C 80 % 1012,9 hPa 0,0 l/m 18,4 km/h (3 Bft) W-SW 247 3,7 C 3,6 C
06.11.2012 19:06 6,9 C 80 % 1012,9 hPa 0,0 l/m 14,8 km/h (3 Bft) W-SW 247 3,7 C 4,1 C
06.11.2012 19:11 6,9 C 80 % 1012,8 hPa 0,0 l/m 24,1 km/h (4 Bft) W-SW 247 3,7 C 3,0 C
06.11.2012 19:16 7,0 C 81 % 1012,8 hPa 0,0 l/m 11,5 km/h (2 Bft) W-SW 247 4,0 C 4,8 C
06.11.2012 19:21 6,9 C 80 % 1012,8 hPa 0,0 l/m 10,4 km/h (2 Bft) W-SW 247 3,7 C 4,8 C
06.11.2012 19:26 6,9 C 81 % 1012,7 hPa 0,0 l/m 17,6 km/h (3 Bft) W-SW 247 3,9 C 3,7 C
06.11.2012 19:31 6,9 C 81 % 1012,7 hPa 0,0 l/m 13,7 km/h (3 Bft) W 270 3,9 C 4,3 C
06.11.2012 19:36 6,8 C 80 % 1012,8 hPa 0,0 l/m 13,3 km/h (3 Bft) W-SW 247 3,6 C 4,2 C
06.11.2012 19:41 6,8 C 80 % 1012,7 hPa 0,0 l/m 23,0 km/h (4 Bft) W 270 3,6 C 3,0 C
06.11.2012 19:46 6,8 C 80 % 1012,8 hPa 0,0 l/m 7,2 km/h (2 Bft) W-SW 247 3,6 C 5,5 C
06.11.2012 19:51 6,7 C 80 % 1012,7 hPa 0,0 l/m 11,2 km/h (2 Bft) W-SW 247 3,5 C 4,5 C
06.11.2012 19:56 6,7 C 80 % 1012,5 hPa 0,0 l/m 13,7 km/h (3 Bft) W-SW 247 3,5 C 4,0 C
06.11.2012 20:01 6,7 C 80 % 1012,5 hPa 0,0 l/m 13,0 km/h (3 Bft) W-SW 247 3,5 C 4,1 C
06.11.2012 20:06 6,6 C 80 % 1012,5 hPa 0,0 l/m 17,3 km/h (3 Bft) W-SW 247 3,4 C 3,4 C
06.11.2012 20:11 6,6 C 80 % 1012,8 hPa 0,0 l/m 15,5 km/h (3 Bft) W 270 3,4 C 3,7 C
06.11.2012 20:16 6,6 C 81 % 1012,9 hPa 0,0 l/m 8,6 km/h (2 Bft) N-NW 337 3,6 C 4,9 C
06.11.2012 20:21 6,5 C 82 % 1012,8 hPa 0,0 l/m 6,1 km/h (2 Bft) W-SW 247 3,7 C 5,4 C
06.11.2012 20:26 6,4 C 82 % 1012,6 hPa 0,0 l/m 4,3 km/h (1 Bft) W-NW 292 3,6 C 6,4 C
06.11.2012 20:31 6,2 C 82 % 1012,7 hPa 0,0 l/m 10,4 km/h (2 Bft) SW 225 3,4 C 4,0 C
06.11.2012 20:36 6,1 C 83 % 1012,7 hPa 0,0 l/m 13,0 km/h (3 Bft) SW 225 3,4 C 3,4 C
06.11.2012 20:41 6,1 C 84 % 1012,6 hPa 0,0 l/m 23,0 km/h (4 Bft) W-SW 247 3,6 C 2,1 C
06.11.2012 20:46 6,1 C 84 % 1012,6 hPa 0,0 l/m 11,2 km/h (2 Bft) W 270 3,6 C 3,7 C
06.11.2012 20:51 6,1 C 84 % 1012,7 hPa 0,0 l/m 20,5 km/h (4 Bft) W-SW 247 3,6 C 2,4 C
06.11.2012 20:56 6,1 C 84 % 1012,6 hPa 0,0 l/m 6,1 km/h (2 Bft) W 270 3,6 C 5,0 C
06.11.2012 21:01 6,2 C 84 % 1012,7 hPa 0,0 l/m 14,0 km/h (3 Bft) W 270 3,7 C 3,4 C
06.11.2012 21:06 6,2 C 84 % 1012,8 hPa 0,0 l/m 12,2 km/h (2 Bft) W-SW 247 3,7 C 3,7 C
06.11.2012 21:11 6,3 C 84 % 1012,8 hPa 0,0 l/m 13,3 km/h (3 Bft) W-SW 247 3,8 C 3,6 C
06.11.2012 21:16 6,3 C 84 % 1012,8 hPa 0,0 l/m 23,0 km/h (4 Bft) W 270 3,8 C 2,4 C
06.11.2012 21:21 6,4 C 84 % 1012,7 hPa 0,0 l/m 11,9 km/h (2 Bft) W-NW 292 3,9 C 4,0 C
06.11.2012 21:26 6,4 C 84 % 1012,6 hPa 0,5 l/m 8,6 km/h (2 Bft) SW 225 3,9 C 4,6 C
06.11.2012 21:31 6,3 C 84 % 1012,4 hPa 0,0 l/m 21,2 km/h (4 Bft) W-SW 247 3,8 C 2,6 C
06.11.2012 21:36 6,3 C 84 % 1012,6 hPa 0,0 l/m 20,5 km/h (4 Bft) W 270 3,8 C 2,7 C
06.11.2012 21:41 6,2 C 85 % 1012,5 hPa 0,0 l/m 10,1 km/h (2 Bft) W-NW 292 3,9 C 4,1 C
06.11.2012 21:46 6,2 C 85 % 1012,5 hPa 0,0 l/m 27,7 km/h (4 Bft) W 270 3,9 C 1,8 C
06.11.2012 21:51 6,1 C 86 % 1012,4 hPa 0,0 l/m 25,6 km/h (4 Bft) W 270 3,9 C 1,9 C
06.11.2012 21:56 6,1 C 86 % 1012,1 hPa 0,0 l/m 23,0 km/h (4 Bft) W-SW 247 3,9 C 2,1 C
06.11.2012 22:01 6,1 C 87 % 1012,0 hPa 0,0 l/m 11,2 km/h (2 Bft) W 270 4,1 C 3,7 C
06.11.2012 22:06 6,1 C 87 % 1012,0 hPa 0,0 l/m 36,0 km/h (5 Bft) W-SW 247 4,1 C 1,0 C
06.11.2012 22:11 6,1 C 87 % 1012,0 hPa 0,0 l/m 14,4 km/h (3 Bft) W-SW 247 4,1 C 3,2 C
06.11.2012 22:16 6,1 C 87 % 1011,7 hPa 0,0 l/m 18,0 km/h (3 Bft) SW 225 4,1 C 2,7 C
06.11.2012 22:21 6,1 C 87 % 1011,7 hPa 0,0 l/m 8,3 km/h (2 Bft) W 270 4,1 C 4,4 C
06.11.2012 22:26 6,1 C 87 % 1011,7 hPa 0,5 l/m 16,6 km/h (3 Bft) W-SW 247 4,1 C 2,9 C
06.11.2012 22:31 6,1 C 87 % 1011,7 hPa 0,0 l/m 8,3 km/h (2 Bft) SW 225 4,1 C 4,4 C
06.11.2012 22:36 6,1 C 87 % 1011,6 hPa 0,0 l/m 22,7 km/h (4 Bft) W-SW 247 4,1 C 2,2 C
06.11.2012 22:41 6,1 C 87 % 1011,3 hPa 0,0 l/m 18,4 km/h (3 Bft) W 270 4,1 C 2,6 C
06.11.2012 22:46 6,1 C 87 % 1011,3 hPa 0,0 l/m 26,3 km/h (4 Bft) SW 225 4,1 C 1,8 C
06.11.2012 22:51 6,1 C 87 % 1011,3 hPa 0,0 l/m 7,9 km/h (2 Bft) SW 225 4,1 C 4,5 C
06.11.2012 22:56 6,1 C 87 % 1011,3 hPa 0,0 l/m 46,4 km/h (6 Bft) W-SW 247 4,1 C 0,4 C
06.11.2012 23:01 6,0 C 87 % 1011,3 hPa 0,0 l/m 19,1 km/h (3 Bft) W-SW 247 4,0 C 2,4 C
06.11.2012 23:06 6,0 C 87 % 1011,1 hPa 0,0 l/m 20,5 km/h (4 Bft) W-SW 247 4,0 C 2,3 C
06.11.2012 23:11 5,9 C 87 % 1011,1 hPa 0,0 l/m 23,4 km/h (4 Bft) SW 225 3,9 C 1,8 C
06.11.2012 23:16 5,9 C 87 % 1011,0 hPa 0,0 l/m 38,5 km/h (5 Bft) W-SW 247 3,9 C 0,6 C
06.11.2012 23:21 5,9 C 87 % 1010,9 hPa 0,0 l/m 16,6 km/h (3 Bft) W-SW 247 3,9 C 2,6 C
06.11.2012 23:26 5,9 C 87 % 1010,8 hPa 0,0 l/m 29,2 km/h (5 Bft) W-SW 247 3,9 C 1,3 C
06.11.2012 23:31 5,9 C 88 % 1010,6 hPa 0,0 l/m 8,3 km/h (2 Bft) SW 225 4,1 C 4,1 C
06.11.2012 23:36 5,9 C 88 % 1010,6 hPa 0,0 l/m 19,1 km/h (3 Bft) W 270 4,1 C 2,3 C
06.11.2012 23:41 5,9 C 88 % 1010,6 hPa 0,0 l/m 24,1 km/h (4 Bft) W 270 4,1 C 1,8 C
06.11.2012 23:46 5,9 C 88 % 1010,5 hPa 0,0 l/m 13,7 km/h (3 Bft) W 270 4,1 C 3,1 C
06.11.2012 23:51 6,1 C 88 % 1010,5 hPa 0,0 l/m 21,6 km/h (4 Bft) W-SW 247 4,3 C 2,3 C
06.11.2012 23:56 6,1 C 87 % 1010,3 hPa 0,0 l/m 16,6 km/h (3 Bft) W 270 4,1 C 2,9 C
_ Min-Zeit 04:31 14:11 00:01 - 02:46 - - 04:31 03:21
Minimum _ 3,2 C 72 % 1005,4 hPa - 0,0 km/h (0 Bft) - - 1,7 C -0,8 C
_ Max-Zeit 14:16 05:21 14:01 21:26 22:56 - - 23:51 13:56
Maximum _ 8,3 C 92 % 1013,5 hPa 0,5 l/m 46,4 km/h
W-SW (6 Bft)
- - 4,3 C 7,6 C
Durchschnitt _ 5,7 C 84 % 1011,1 hPa #1,0 l/m 11,8 km/h (2 Bft) W - 3,2 C 3,5 C
(c) by David Heller